sensor_id;sensor_type;location;lat;lon;timestamp;P1;durP1;ratioP1;P2;durP2;ratioP2
48667;SDS011;34453;52.198;5.004;2022-09-09T00:00:15;6.07;;;1.40;;
48667;SDS011;34453;52.198;5.004;2022-09-09T00:02:44;3.67;;;1.35;;
48667;SDS011;34453;52.198;5.004;2022-09-09T00:05:23;4.82;;;1.55;;
48667;SDS011;34453;52.198;5.004;2022-09-09T00:08:02;3.97;;;2.10;;
48667;SDS011;34453;52.198;5.004;2022-09-09T00:10:32;1.85;;;1.30;;
48667;SDS011;34453;52.198;5.004;2022-09-09T00:13:24;2.45;;;1.70;;
48667;SDS011;34453;52.198;5.004;2022-09-09T00:24:28;2.30;;;1.63;;
48667;SDS011;34453;52.198;5.004;2022-09-09T00:27:44;1.92;;;1.70;;
48667;SDS011;34453;52.198;5.004;2022-09-09T00:30:26;2.35;;;1.65;;
48667;SDS011;34453;52.198;5.004;2022-09-09T00:33:00;2.60;;;1.75;;
48667;SDS011;34453;52.198;5.004;2022-09-09T00:35:30;3.15;;;2.15;;
48667;SDS011;34453;52.198;5.004;2022-09-09T00:38:42;7.05;;;2.15;;
48667;SDS011;34453;52.198;5.004;2022-09-09T00:41:01;4.28;;;2.38;;
48667;SDS011;34453;52.198;5.004;2022-09-09T00:43:35;1.80;;;1.65;;
48667;SDS011;34453;52.198;5.004;2022-09-09T00:55:28;4.90;;;2.35;;
48667;SDS011;34453;52.198;5.004;2022-09-09T00:58:06;3.22;;;2.47;;
48667;SDS011;34453;52.198;5.004;2022-09-09T01:01:33;2.47;;;2.35;;
48667;SDS011;34453;52.198;5.004;2022-09-09T01:03:49;5.57;;;2.90;;
48667;SDS011;34453;52.198;5.004;2022-09-09T01:14:24;5.30;;;3.58;;
48667;SDS011;34453;52.198;5.004;2022-09-09T01:16:56;6.05;;;3.40;;
48667;SDS011;34453;52.198;5.004;2022-09-09T01:19:27;3.63;;;3.33;;
48667;SDS011;34453;52.198;5.004;2022-09-09T01:22:13;5.15;;;3.35;;
48667;SDS011;34453;52.198;5.004;2022-09-09T01:30:29;4.65;;;3.75;;
48667;SDS011;34453;52.198;5.004;2022-09-09T01:32:57;5.28;;;3.67;;
48667;SDS011;34453;52.198;5.004;2022-09-09T01:35:35;9.45;;;3.92;;
48667;SDS011;34453;52.198;5.004;2022-09-09T01:38:09;5.07;;;3.78;;
48667;SDS011;34453;52.198;5.004;2022-09-09T01:40:35;6.20;;;4.20;;
48667;SDS011;34453;52.198;5.004;2022-09-09T01:43:00;4.35;;;3.92;;
48667;SDS011;34453;52.198;5.004;2022-09-09T01:45:26;5.55;;;3.92;;
48667;SDS011;34453;52.198;5.004;2022-09-09T01:47:52;4.65;;;3.80;;
48667;SDS011;34453;52.198;5.004;2022-09-09T01:50:18;5.50;;;3.80;;
48667;SDS011;34453;52.198;5.004;2022-09-09T01:52:45;5.75;;;3.78;;
48667;SDS011;34453;52.198;5.004;2022-09-09T01:55:14;5.63;;;4.13;;
48667;SDS011;34453;52.198;5.004;2022-09-09T02:00:51;5.28;;;4.20;;
48667;SDS011;34453;52.198;5.004;2022-09-09T02:03:27;6.40;;;3.70;;
48667;SDS011;34453;52.198;5.004;2022-09-09T02:08:50;5.53;;;4.95;;
48667;SDS011;34453;52.198;5.004;2022-09-09T02:11:28;7.55;;;4.70;;
48667;SDS011;34453;52.198;5.004;2022-09-09T02:13:56;5.50;;;4.75;;
48667;SDS011;34453;52.198;5.004;2022-09-09T02:16:32;13.48;;;4.20;;
48667;SDS011;34453;52.198;5.004;2022-09-09T02:19:14;4.82;;;4.40;;
48667;SDS011;34453;52.198;5.004;2022-09-09T02:21:52;5.88;;;4.43;;
48667;SDS011;34453;52.198;5.004;2022-09-09T02:24:20;7.97;;;5.55;;
48667;SDS011;34453;52.198;5.004;2022-09-09T02:26:47;4.88;;;4.47;;
48667;SDS011;34453;52.198;5.004;2022-09-09T02:29:28;5.85;;;5.28;;
48667;SDS011;34453;52.198;5.004;2022-09-09T02:31:59;4.72;;;4.38;;
48667;SDS011;34453;52.198;5.004;2022-09-09T02:34:29;7.30;;;5.30;;
48667;SDS011;34453;52.198;5.004;2022-09-09T02:36:57;9.55;;;5.53;;
48667;SDS011;34453;52.198;5.004;2022-09-09T02:39:24;7.40;;;5.18;;
48667;SDS011;34453;52.198;5.004;2022-09-09T02:41:50;6.55;;;5.15;;
48667;SDS011;34453;52.198;5.004;2022-09-09T02:44:17;7.30;;;5.85;;
48667;SDS011;34453;52.198;5.004;2022-09-09T02:49:49;9.73;;;5.47;;
48667;SDS011;34453;52.198;5.004;2022-09-09T02:52:22;6.05;;;5.47;;
48667;SDS011;34453;52.198;5.004;2022-09-09T02:54:55;6.50;;;5.38;;
48667;SDS011;34453;52.198;5.004;2022-09-09T02:57:29;7.63;;;6.50;;
48667;SDS011;34453;52.198;5.004;2022-09-09T02:59:57;11.02;;;6.18;;
48667;SDS011;34453;52.198;5.004;2022-09-09T03:02:23;8.18;;;6.53;;
48667;SDS011;34453;52.198;5.004;2022-09-09T03:04:50;8.68;;;6.28;;
48667;SDS011;34453;52.198;5.004;2022-09-09T03:07:17;6.97;;;6.18;;
48667;SDS011;34453;52.198;5.004;2022-09-09T03:09:43;8.48;;;6.85;;
48667;SDS011;34453;52.198;5.004;2022-09-09T03:12:09;6.60;;;6.00;;
48667;SDS011;34453;52.198;5.004;2022-09-09T03:14:36;11.77;;;6.85;;
48667;SDS011;34453;52.198;5.004;2022-09-09T03:17:01;7.40;;;6.68;;
48667;SDS011;34453;52.198;5.004;2022-09-09T03:19:27;7.43;;;6.35;;
48667;SDS011;34453;52.198;5.004;2022-09-09T03:21:53;6.50;;;5.65;;
48667;SDS011;34453;52.198;5.004;2022-09-09T03:24:19;10.30;;;6.60;;
48667;SDS011;34453;52.198;5.004;2022-09-09T03:26:44;7.93;;;6.18;;
48667;SDS011;34453;52.198;5.004;2022-09-09T03:29:10;10.13;;;5.70;;
48667;SDS011;34453;52.198;5.004;2022-09-09T03:31:37;8.68;;;6.05;;
48667;SDS011;34453;52.198;5.004;2022-09-09T03:34:03;7.30;;;6.60;;
48667;SDS011;34453;52.198;5.004;2022-09-09T03:36:29;7.18;;;6.15;;
48667;SDS011;34453;52.198;5.004;2022-09-09T03:38:55;6.63;;;5.38;;
48667;SDS011;34453;52.198;5.004;2022-09-09T03:41:21;5.38;;;4.88;;
48667;SDS011;34453;52.198;5.004;2022-09-09T03:43:49;11.00;;;5.43;;
48667;SDS011;34453;52.198;5.004;2022-09-09T03:46:18;7.88;;;5.22;;
48667;SDS011;34453;52.198;5.004;2022-09-09T03:48:45;7.55;;;5.20;;
48667;SDS011;34453;52.198;5.004;2022-09-09T03:51:11;6.68;;;5.60;;
48667;SDS011;34453;52.198;5.004;2022-09-09T03:53:37;9.10;;;5.10;;
48667;SDS011;34453;52.198;5.004;2022-09-09T03:56:03;5.38;;;4.35;;
48667;SDS011;34453;52.198;5.004;2022-09-09T03:58:31;4.45;;;4.13;;
48667;SDS011;34453;52.198;5.004;2022-09-09T04:01:02;8.85;;;4.03;;
48667;SDS011;34453;52.198;5.004;2022-09-09T04:03:30;12.07;;;5.32;;
48667;SDS011;34453;52.198;5.004;2022-09-09T04:05:57;4.35;;;3.83;;
48667;SDS011;34453;52.198;5.004;2022-09-09T04:08:24;8.70;;;4.43;;
48667;SDS011;34453;52.198;5.004;2022-09-09T04:10:51;7.00;;;4.03;;
48667;SDS011;34453;52.198;5.004;2022-09-09T04:13:17;8.80;;;4.50;;
48667;SDS011;34453;52.198;5.004;2022-09-09T04:15:44;5.97;;;3.75;;
48667;SDS011;34453;52.198;5.004;2022-09-09T04:18:10;8.93;;;4.35;;
48667;SDS011;34453;52.198;5.004;2022-09-09T04:20:36;4.32;;;3.97;;
48667;SDS011;34453;52.198;5.004;2022-09-09T04:23:02;5.68;;;3.45;;
48667;SDS011;34453;52.198;5.004;2022-09-09T04:25:28;4.40;;;3.78;;
48667;SDS011;34453;52.198;5.004;2022-09-09T04:27:54;11.73;;;4.25;;
48667;SDS011;34453;52.198;5.004;2022-09-09T04:30:20;9.07;;;3.90;;
48667;SDS011;34453;52.198;5.004;2022-09-09T04:32:46;5.97;;;3.88;;
48667;SDS011;34453;52.198;5.004;2022-09-09T04:35:11;3.28;;;3.00;;
48667;SDS011;34453;52.198;5.004;2022-09-09T04:37:37;4.75;;;3.20;;
48667;SDS011;34453;52.198;5.004;2022-09-09T04:40:02;4.80;;;3.28;;
48667;SDS011;34453;52.198;5.004;2022-09-09T04:42:28;7.30;;;3.40;;
48667;SDS011;34453;52.198;5.004;2022-09-09T04:44:53;5.40;;;3.00;;
48667;SDS011;34453;52.198;5.004;2022-09-09T04:47:19;4.80;;;3.63;;
48667;SDS011;34453;52.198;5.004;2022-09-09T04:49:45;16.50;;;3.50;;
48667;SDS011;34453;52.198;5.004;2022-09-09T04:52:10;5.55;;;3.17;;
48667;SDS011;34453;52.198;5.004;2022-09-09T04:54:36;6.05;;;3.65;;
48667;SDS011;34453;52.198;5.004;2022-09-09T04:57:02;6.65;;;2.92;;
48667;SDS011;34453;52.198;5.004;2022-09-09T04:59:27;4.68;;;3.38;;
48667;SDS011;34453;52.198;5.004;2022-09-09T05:01:53;5.10;;;3.45;;
48667;SDS011;34453;52.198;5.004;2022-09-09T05:04:20;3.55;;;3.15;;
48667;SDS011;34453;52.198;5.004;2022-09-09T05:06:46;5.20;;;3.15;;
48667;SDS011;34453;52.198;5.004;2022-09-09T05:09:11;5.43;;;3.08;;
48667;SDS011;34453;52.198;5.004;2022-09-09T05:11:36;5.05;;;2.95;;
48667;SDS011;34453;52.198;5.004;2022-09-09T05:14:03;7.47;;;3.10;;
48667;SDS011;34453;52.198;5.004;2022-09-09T05:16:29;6.38;;;2.90;;
48667;SDS011;34453;52.198;5.004;2022-09-09T05:18:55;5.68;;;3.33;;
48667;SDS011;34453;52.198;5.004;2022-09-09T05:21:22;7.88;;;3.72;;
48667;SDS011;34453;52.198;5.004;2022-09-09T05:23:50;4.20;;;2.97;;
48667;SDS011;34453;52.198;5.004;2022-09-09T05:26:17;3.88;;;3.05;;
48667;SDS011;34453;52.198;5.004;2022-09-09T05:28:44;6.60;;;2.97;;
48667;SDS011;34453;52.198;5.004;2022-09-09T05:31:13;3.50;;;3.20;;
48667;SDS011;34453;52.198;5.004;2022-09-09T05:33:40;6.47;;;3.58;;
48667;SDS011;34453;52.198;5.004;2022-09-09T05:36:08;7.85;;;2.90;;
48667;SDS011;34453;52.198;5.004;2022-09-09T05:38:39;5.57;;;3.33;;
48667;SDS011;34453;52.198;5.004;2022-09-09T05:41:06;5.80;;;3.20;;
48667;SDS011;34453;52.198;5.004;2022-09-09T05:43:32;12.18;;;3.45;;
48667;SDS011;34453;52.198;5.004;2022-09-09T05:46:01;3.88;;;2.97;;
48667;SDS011;34453;52.198;5.004;2022-09-09T05:48:36;4.60;;;3.97;;
48667;SDS011;34453;52.198;5.004;2022-09-09T05:51:03;3.17;;;2.63;;
48667;SDS011;34453;52.198;5.004;2022-09-09T05:53:30;5.82;;;2.58;;
48667;SDS011;34453;52.198;5.004;2022-09-09T05:58:32;10.13;;;2.97;;
48667;SDS011;34453;52.198;5.004;2022-09-09T06:01:03;13.63;;;3.88;;
48667;SDS011;34453;52.198;5.004;2022-09-09T06:03:30;4.93;;;3.03;;
48667;SDS011;34453;52.198;5.004;2022-09-09T06:05:57;6.68;;;3.30;;
48667;SDS011;34453;52.198;5.004;2022-09-09T06:08:27;6.22;;;2.95;;
48667;SDS011;34453;52.198;5.004;2022-09-09T06:10:53;6.60;;;3.17;;
48667;SDS011;34453;52.198;5.004;2022-09-09T06:13:18;9.40;;;3.28;;
48667;SDS011;34453;52.198;5.004;2022-09-09T06:15:50;6.72;;;2.92;;
48667;SDS011;34453;52.198;5.004;2022-09-09T06:18:17;5.20;;;2.75;;
48667;SDS011;34453;52.198;5.004;2022-09-09T06:20:53;10.82;;;2.58;;
48667;SDS011;34453;52.198;5.004;2022-09-09T06:23:19;4.13;;;2.35;;
48667;SDS011;34453;52.198;5.004;2022-09-09T06:25:45;7.70;;;3.03;;
48667;SDS011;34453;52.198;5.004;2022-09-09T06:28:11;15.40;;;3.30;;
48667;SDS011;34453;52.198;5.004;2022-09-09T06:30:36;9.10;;;2.90;;
48667;SDS011;34453;52.198;5.004;2022-09-09T06:33:02;7.80;;;3.72;;
48667;SDS011;34453;52.198;5.004;2022-09-09T06:35:28;7.38;;;2.88;;
48667;SDS011;34453;52.198;5.004;2022-09-09T06:37:54;10.55;;;2.60;;
48667;SDS011;34453;52.198;5.004;2022-09-09T06:40:19;10.43;;;2.72;;
48667;SDS011;34453;52.198;5.004;2022-09-09T06:42:45;7.43;;;2.70;;
48667;SDS011;34453;52.198;5.004;2022-09-09T06:45:10;9.95;;;2.45;;
48667;SDS011;34453;52.198;5.004;2022-09-09T06:47:36;11.65;;;3.47;;
48667;SDS011;34453;52.198;5.004;2022-09-09T06:50:01;7.90;;;2.90;;
48667;SDS011;34453;52.198;5.004;2022-09-09T06:52:27;16.13;;;3.10;;
48667;SDS011;34453;52.198;5.004;2022-09-09T06:54:53;6.70;;;3.00;;
48667;SDS011;34453;52.198;5.004;2022-09-09T06:57:18;9.07;;;2.60;;
48667;SDS011;34453;52.198;5.004;2022-09-09T06:59:44;5.50;;;2.80;;
48667;SDS011;34453;52.198;5.004;2022-09-09T07:02:09;9.43;;;2.28;;
48667;SDS011;34453;52.198;5.004;2022-09-09T07:04:35;7.45;;;2.75;;
48667;SDS011;34453;52.198;5.004;2022-09-09T07:07:02;5.90;;;2.88;;
48667;SDS011;34453;52.198;5.004;2022-09-09T07:09:27;4.93;;;2.13;;
48667;SDS011;34453;52.198;5.004;2022-09-09T07:11:54;4.80;;;2.90;;
48667;SDS011;34453;52.198;5.004;2022-09-09T07:14:20;9.55;;;2.95;;
48667;SDS011;34453;52.198;5.004;2022-09-09T07:16:47;8.18;;;3.08;;
48667;SDS011;34453;52.198;5.004;2022-09-09T07:19:13;18.15;;;5.72;;
48667;SDS011;34453;52.198;5.004;2022-09-09T07:21:39;5.22;;;2.88;;
48667;SDS011;34453;52.198;5.004;2022-09-09T07:24:05;9.35;;;2.63;;
48667;SDS011;34453;52.198;5.004;2022-09-09T07:26:33;11.98;;;3.20;;
48667;SDS011;34453;52.198;5.004;2022-09-09T07:29:00;8.85;;;3.17;;
48667;SDS011;34453;52.198;5.004;2022-09-09T07:31:27;17.33;;;3.40;;
48667;SDS011;34453;52.198;5.004;2022-09-09T07:36:25;8.95;;;3.00;;
48667;SDS011;34453;52.198;5.004;2022-09-09T07:38:57;9.73;;;3.53;;
48667;SDS011;34453;52.198;5.004;2022-09-09T07:41:28;10.07;;;3.53;;
48667;SDS011;34453;52.198;5.004;2022-09-09T07:43:57;6.38;;;3.30;;
48667;SDS011;34453;52.198;5.004;2022-09-09T07:46:24;8.05;;;3.30;;
48667;SDS011;34453;52.198;5.004;2022-09-09T07:48:51;9.73;;;3.75;;
48667;SDS011;34453;52.198;5.004;2022-09-09T07:51:24;6.43;;;3.00;;
48667;SDS011;34453;52.198;5.004;2022-09-09T07:53:52;7.18;;;3.15;;
48667;SDS011;34453;52.198;5.004;2022-09-09T07:56:27;11.27;;;3.67;;
48667;SDS011;34453;52.198;5.004;2022-09-09T07:58:54;10.95;;;3.45;;
48667;SDS011;34453;52.198;5.004;2022-09-09T08:01:25;8.82;;;3.90;;
48667;SDS011;34453;52.198;5.004;2022-09-09T08:03:59;8.38;;;3.25;;
48667;SDS011;34453;52.198;5.004;2022-09-09T08:06:27;8.05;;;3.22;;
48667;SDS011;34453;52.198;5.004;2022-09-09T08:08:54;4.82;;;3.00;;
48667;SDS011;34453;52.198;5.004;2022-09-09T08:11:21;13.23;;;2.90;;
48667;SDS011;34453;52.198;5.004;2022-09-09T08:13:49;6.88;;;2.40;;
48667;SDS011;34453;52.198;5.004;2022-09-09T08:16:20;10.30;;;3.22;;
48667;SDS011;34453;52.198;5.004;2022-09-09T08:18:50;7.13;;;2.83;;
48667;SDS011;34453;52.198;5.004;2022-09-09T08:21:21;8.50;;;2.88;;
48667;SDS011;34453;52.198;5.004;2022-09-09T08:23:50;6.67;;;2.60;;
48667;SDS011;34453;52.198;5.004;2022-09-09T08:26:18;8.95;;;3.25;;
48667;SDS011;34453;52.198;5.004;2022-09-09T08:28:51;4.65;;;2.90;;
48667;SDS011;34453;52.198;5.004;2022-09-09T08:31:22;11.88;;;3.45;;
48667;SDS011;34453;52.198;5.004;2022-09-09T08:33:49;4.10;;;2.45;;
48667;SDS011;34453;52.198;5.004;2022-09-09T08:36:19;11.13;;;2.88;;
48667;SDS011;34453;52.198;5.004;2022-09-09T08:38:47;7.20;;;2.63;;
48667;SDS011;34453;52.198;5.004;2022-09-09T08:44:10;11.07;;;3.30;;
48667;SDS011;34453;52.198;5.004;2022-09-09T08:52:00;7.20;;;2.80;;
48667;SDS011;34453;52.198;5.004;2022-09-09T08:54:28;6.25;;;2.70;;
48667;SDS011;34453;52.198;5.004;2022-09-09T08:56:58;12.48;;;3.72;;
48667;SDS011;34453;52.198;5.004;2022-09-09T08:59:24;5.63;;;3.30;;
48667;SDS011;34453;52.198;5.004;2022-09-09T09:12:40;4.55;;;2.38;;
48667;SDS011;34453;52.198;5.004;2022-09-09T09:15:14;14.60;;;2.28;;
48667;SDS011;34453;52.198;5.004;2022-09-09T09:17:44;5.07;;;2.28;;
48667;SDS011;34453;52.198;5.004;2022-09-09T09:20:16;9.10;;;2.47;;
48667;SDS011;34453;52.198;5.004;2022-09-09T09:22:50;2.80;;;1.90;;
48667;SDS011;34453;52.198;5.004;2022-09-09T09:25:20;8.68;;;2.65;;
48667;SDS011;34453;52.198;5.004;2022-09-09T09:33:25;5.05;;;2.20;;
48667;SDS011;34453;52.198;5.004;2022-09-09T09:36:09;12.32;;;2.10;;
48667;SDS011;34453;52.198;5.004;2022-09-09T09:38:36;6.55;;;2.80;;
48667;SDS011;34453;52.198;5.004;2022-09-09T09:41:03;11.52;;;2.55;;
48667;SDS011;34453;52.198;5.004;2022-09-09T09:43:39;7.40;;;2.47;;
48667;SDS011;34453;52.198;5.004;2022-09-09T09:46:18;4.20;;;1.65;;
48667;SDS011;34453;52.198;5.004;2022-09-09T09:49:00;9.00;;;2.10;;
48667;SDS011;34453;52.198;5.004;2022-09-09T09:56:38;13.90;;;2.28;;
48667;SDS011;34453;52.198;5.004;2022-09-09T09:59:05;5.07;;;1.90;;
48667;SDS011;34453;52.198;5.004;2022-09-09T10:01:44;6.07;;;1.52;;
48667;SDS011;34453;52.198;5.004;2022-09-09T10:04:17;9.10;;;1.95;;
48667;SDS011;34453;52.198;5.004;2022-09-09T10:06:48;18.08;;;3.33;;
48667;SDS011;34453;52.198;5.004;2022-09-09T10:09:28;11.93;;;1.73;;
48667;SDS011;34453;52.198;5.004;2022-09-09T10:12:08;6.70;;;1.73;;
48667;SDS011;34453;52.198;5.004;2022-09-09T10:34:50;6.43;;;1.60;;
48667;SDS011;34453;52.198;5.004;2022-09-09T10:56:41;6.68;;;2.05;;
48667;SDS011;34453;52.198;5.004;2022-09-09T10:59:12;11.30;;;2.17;;
48667;SDS011;34453;52.198;5.004;2022-09-09T11:01:44;3.83;;;1.90;;
48667;SDS011;34453;52.198;5.004;2022-09-09T11:04:42;5.70;;;2.30;;
48667;SDS011;34453;52.198;5.004;2022-09-09T11:07:21;6.32;;;1.98;;
48667;SDS011;34453;52.198;5.004;2022-09-09T11:10:17;4.45;;;1.70;;
48667;SDS011;34453;52.198;5.004;2022-09-09T11:13:07;2.47;;;1.40;;
48667;SDS011;34453;52.198;5.004;2022-09-09T11:15:45;6.88;;;1.85;;
48667;SDS011;34453;52.198;5.004;2022-09-09T11:18:19;5.55;;;1.65;;
48667;SDS011;34453;52.198;5.004;2022-09-09T11:20:54;9.68;;;2.22;;
48667;SDS011;34453;52.198;5.004;2022-09-09T11:23:49;5.20;;;2.45;;
48667;SDS011;34453;52.198;5.004;2022-09-09T11:26:18;4.47;;;1.80;;
48667;SDS011;34453;52.198;5.004;2022-09-09T11:37:08;4.28;;;1.95;;
48667;SDS011;34453;52.198;5.004;2022-09-09T11:39:51;7.15;;;1.85;;
48667;SDS011;34453;52.198;5.004;2022-09-09T11:42:33;6.72;;;1.98;;
48667;SDS011;34453;52.198;5.004;2022-09-09T11:45:08;3.95;;;1.30;;
48667;SDS011;34453;52.198;5.004;2022-09-09T11:47:36;5.30;;;2.22;;
48667;SDS011;34453;52.198;5.004;2022-09-09T11:52:37;5.55;;;2.22;;
48667;SDS011;34453;52.198;5.004;2022-09-09T11:55:19;10.43;;;2.33;;
48667;SDS011;34453;52.198;5.004;2022-09-09T11:58:28;8.27;;;2.03;;
48667;SDS011;34453;52.198;5.004;2022-09-09T12:00:48;8.02;;;2.80;;
48667;SDS011;34453;52.198;5.004;2022-09-09T12:06:18;5.65;;;2.13;;
48667;SDS011;34453;52.198;5.004;2022-09-09T12:08:56;2.97;;;2.17;;
48667;SDS011;34453;52.198;5.004;2022-09-09T12:11:36;3.13;;;2.13;;
48667;SDS011;34453;52.198;5.004;2022-09-09T12:14:02;6.70;;;2.28;;
48667;SDS011;34453;52.198;5.004;2022-09-09T12:16:38;4.60;;;2.33;;
48667;SDS011;34453;52.198;5.004;2022-09-09T12:19:06;8.13;;;2.30;;
48667;SDS011;34453;52.198;5.004;2022-09-09T12:24:34;3.03;;;2.42;;
48667;SDS011;34453;52.198;5.004;2022-09-09T12:27:23;4.05;;;2.15;;
48667;SDS011;34453;52.198;5.004;2022-09-09T12:32:35;2.95;;;2.80;;
48667;SDS011;34453;52.198;5.004;2022-09-09T12:35:13;2.80;;;2.60;;
48667;SDS011;34453;52.198;5.004;2022-09-09T12:37:52;4.25;;;2.67;;
48667;SDS011;34453;52.198;5.004;2022-09-09T12:40:28;4.18;;;2.83;;
48667;SDS011;34453;52.198;5.004;2022-09-09T12:42:57;5.97;;;2.75;;
48667;SDS011;34453;52.198;5.004;2022-09-09T12:45:28;8.15;;;3.10;;
48667;SDS011;34453;52.198;5.004;2022-09-09T12:48:06;5.75;;;3.08;;
48667;SDS011;34453;52.198;5.004;2022-09-09T12:50:37;8.52;;;2.88;;
48667;SDS011;34453;52.198;5.004;2022-09-09T12:58:45;8.77;;;2.55;;
48667;SDS011;34453;52.198;5.004;2022-09-09T13:03:54;8.82;;;3.25;;
48667;SDS011;34453;52.198;5.004;2022-09-09T13:06:25;8.80;;;2.53;;
48667;SDS011;34453;52.198;5.004;2022-09-09T13:08:53;5.65;;;2.60;;
48667;SDS011;34453;52.198;5.004;2022-09-09T13:11:21;5.35;;;2.75;;
48667;SDS011;34453;52.198;5.004;2022-09-09T13:14:02;6.55;;;3.25;;
48667;SDS011;34453;52.198;5.004;2022-09-09T13:16:30;3.63;;;2.33;;
48667;SDS011;34453;52.198;5.004;2022-09-09T13:19:10;4.95;;;2.28;;
48667;SDS011;34453;52.198;5.004;2022-09-09T13:21:41;2.85;;;1.98;;
48667;SDS011;34453;52.198;5.004;2022-09-09T13:26:54;6.53;;;2.65;;
48667;SDS011;34453;52.198;5.004;2022-09-09T13:29:25;2.78;;;2.10;;
48667;SDS011;34453;52.198;5.004;2022-09-09T13:31:51;6.78;;;3.35;;
48667;SDS011;34453;52.198;5.004;2022-09-09T13:37:02;4.53;;;2.67;;
48667;SDS011;34453;52.198;5.004;2022-09-09T13:39:33;4.45;;;2.88;;
48667;SDS011;34453;52.198;5.004;2022-09-09T13:42:02;3.20;;;2.67;;
48667;SDS011;34453;52.198;5.004;2022-09-09T13:44:30;9.32;;;3.80;;
48667;SDS011;34453;52.198;5.004;2022-09-09T13:47:03;4.28;;;2.65;;
48667;SDS011;34453;52.198;5.004;2022-09-09T13:49:38;4.32;;;2.97;;
48667;SDS011;34453;52.198;5.004;2022-09-09T13:54:39;6.40;;;2.60;;
48667;SDS011;34453;52.198;5.004;2022-09-09T13:57:13;5.10;;;2.30;;
48667;SDS011;34453;52.198;5.004;2022-09-09T13:59:51;5.45;;;2.42;;
48667;SDS011;34453;52.198;5.004;2022-09-09T14:02:20;7.43;;;3.17;;
48667;SDS011;34453;52.198;5.004;2022-09-09T14:04:48;4.40;;;2.17;;
48667;SDS011;34453;52.198;5.004;2022-09-09T14:07:20;5.60;;;2.67;;
48667;SDS011;34453;52.198;5.004;2022-09-09T14:09:47;4.13;;;1.90;;
48667;SDS011;34453;52.198;5.004;2022-09-09T14:12:15;6.40;;;2.45;;
48667;SDS011;34453;52.198;5.004;2022-09-09T14:14:42;3.15;;;2.17;;
48667;SDS011;34453;52.198;5.004;2022-09-09T14:17:09;3.80;;;2.53;;
48667;SDS011;34453;52.198;5.004;2022-09-09T14:19:35;6.32;;;2.33;;
48667;SDS011;34453;52.198;5.004;2022-09-09T14:22:03;8.90;;;2.63;;
48667;SDS011;34453;52.198;5.004;2022-09-09T14:24:29;4.15;;;2.72;;
48667;SDS011;34453;52.198;5.004;2022-09-09T14:26:56;4.72;;;2.78;;
48667;SDS011;34453;52.198;5.004;2022-09-09T14:29:25;3.38;;;2.25;;
48667;SDS011;34453;52.198;5.004;2022-09-09T14:31:52;4.68;;;3.05;;
48667;SDS011;34453;52.198;5.004;2022-09-09T14:34:19;3.67;;;2.08;;
48667;SDS011;34453;52.198;5.004;2022-09-09T14:36:45;7.40;;;2.58;;
48667;SDS011;34453;52.198;5.004;2022-09-09T14:39:12;8.38;;;2.10;;
48667;SDS011;34453;52.198;5.004;2022-09-09T14:41:39;6.00;;;2.50;;
48667;SDS011;34453;52.198;5.004;2022-09-09T14:44:06;5.78;;;1.92;;
48667;SDS011;34453;52.198;5.004;2022-09-09T14:46:34;7.63;;;1.60;;
48667;SDS011;34453;52.198;5.004;2022-09-09T14:49:01;5.32;;;1.35;;
48667;SDS011;34453;52.198;5.004;2022-09-09T14:51:30;3.67;;;1.35;;
48667;SDS011;34453;52.198;5.004;2022-09-09T14:53:58;6.03;;;1.50;;
48667;SDS011;34453;52.198;5.004;2022-09-09T14:56:28;2.58;;;1.10;;
48667;SDS011;34453;52.198;5.004;2022-09-09T14:59:00;6.10;;;1.30;;
48667;SDS011;34453;52.198;5.004;2022-09-09T15:01:28;0.70;;;0.70;;
48667;SDS011;34453;52.198;5.004;2022-09-09T15:03:58;1.40;;;0.80;;
48667;SDS011;34453;52.198;5.004;2022-09-09T15:06:29;0.65;;;0.65;;
48667;SDS011;34453;52.198;5.004;2022-09-09T15:08:59;1.63;;;0.77;;
48667;SDS011;34453;52.198;5.004;2022-09-09T15:11:30;2.70;;;0.75;;
48667;SDS011;34453;52.198;5.004;2022-09-09T15:14:03;1.98;;;1.05;;
48667;SDS011;34453;52.198;5.004;2022-09-09T15:16:33;2.78;;;1.08;;
48667;SDS011;34453;52.198;5.004;2022-09-09T15:19:02;2.45;;;1.10;;
48667;SDS011;34453;52.198;5.004;2022-09-09T15:21:31;3.72;;;1.10;;
48667;SDS011;34453;52.198;5.004;2022-09-09T15:24:00;4.70;;;1.23;;
48667;SDS011;34453;52.198;5.004;2022-09-09T15:26:30;2.80;;;1.25;;
48667;SDS011;34453;52.198;5.004;2022-09-09T15:28:58;6.75;;;1.35;;
48667;SDS011;34453;52.198;5.004;2022-09-09T15:31:27;4.45;;;1.58;;
48667;SDS011;34453;52.198;5.004;2022-09-09T15:33:58;4.82;;;1.52;;
48667;SDS011;34453;52.198;5.004;2022-09-09T15:38:57;2.60;;;1.80;;
48667;SDS011;34453;52.198;5.004;2022-09-09T15:41:26;7.00;;;2.45;;
48667;SDS011;34453;52.198;5.004;2022-09-09T15:43:54;3.58;;;1.38;;
48667;SDS011;34453;52.198;5.004;2022-09-09T15:46:27;3.67;;;1.48;;
48667;SDS011;34453;52.198;5.004;2022-09-09T15:49:15;2.72;;;1.23;;
48667;SDS011;34453;52.198;5.004;2022-09-09T15:51:45;2.65;;;1.17;;
48667;SDS011;34453;52.198;5.004;2022-09-09T15:54:19;13.15;;;1.95;;
48667;SDS011;34453;52.198;5.004;2022-09-09T15:56:50;2.75;;;1.38;;
48667;SDS011;34453;52.198;5.004;2022-09-09T15:59:24;3.08;;;1.25;;
48667;SDS011;34453;52.198;5.004;2022-09-09T16:01:53;1.63;;;1.30;;
48667;SDS011;34453;52.198;5.004;2022-09-09T16:04:22;3.28;;;1.20;;
48667;SDS011;34453;52.198;5.004;2022-09-09T16:06:53;3.83;;;1.20;;
48667;SDS011;34453;52.198;5.004;2022-09-09T16:09:24;2.47;;;1.20;;
48667;SDS011;34453;52.198;5.004;2022-09-09T16:11:52;1.63;;;1.13;;
48667;SDS011;34453;52.198;5.004;2022-09-09T16:14:22;3.15;;;1.17;;
48667;SDS011;34453;52.198;5.004;2022-09-09T16:16:51;3.88;;;1.40;;
48667;SDS011;34453;52.198;5.004;2022-09-09T16:19:18;3.55;;;1.30;;
48667;SDS011;34453;52.198;5.004;2022-09-09T16:21:45;3.95;;;1.65;;
48667;SDS011;34453;52.198;5.004;2022-09-09T16:24:14;1.63;;;1.48;;
48667;SDS011;34453;52.198;5.004;2022-09-09T16:26:42;3.17;;;1.27;;
48667;SDS011;34453;52.198;5.004;2022-09-09T16:29:12;5.07;;;2.35;;
48667;SDS011;34453;52.198;5.004;2022-09-09T16:31:39;4.35;;;1.30;;
48667;SDS011;34453;52.198;5.004;2022-09-09T16:34:06;8.02;;;1.92;;
48667;SDS011;34453;52.198;5.004;2022-09-09T16:36:34;1.10;;;1.02;;
48667;SDS011;34453;52.198;5.004;2022-09-09T16:39:03;4.47;;;1.85;;
48667;SDS011;34453;52.198;5.004;2022-09-09T16:41:31;4.80;;;1.83;;
48667;SDS011;34453;52.198;5.004;2022-09-09T16:44:00;3.90;;;1.58;;
48667;SDS011;34453;52.198;5.004;2022-09-09T16:46:33;3.17;;;1.60;;
48667;SDS011;34453;52.198;5.004;2022-09-09T16:49:05;5.72;;;1.40;;
48667;SDS011;34453;52.198;5.004;2022-09-09T16:51:40;2.63;;;1.50;;
48667;SDS011;34453;52.198;5.004;2022-09-09T16:54:12;5.35;;;1.63;;
48667;SDS011;34453;52.198;5.004;2022-09-09T16:56:42;2.45;;;1.65;;
48667;SDS011;34453;52.198;5.004;2022-09-09T16:59:13;6.07;;;1.80;;
48667;SDS011;34453;52.198;5.004;2022-09-09T17:01:43;5.20;;;1.40;;
48667;SDS011;34453;52.198;5.004;2022-09-09T17:04:15;2.97;;;1.60;;
48667;SDS011;34453;52.198;5.004;2022-09-09T17:06:46;7.65;;;2.38;;
48667;SDS011;34453;52.198;5.004;2022-09-09T17:09:14;4.38;;;2.40;;
48667;SDS011;34453;52.198;5.004;2022-09-09T17:11:41;2.67;;;2.08;;
48667;SDS011;34453;52.198;5.004;2022-09-09T17:14:08;4.50;;;2.03;;
48667;SDS011;34453;52.198;5.004;2022-09-09T17:16:38;7.47;;;2.50;;
48667;SDS011;34453;52.198;5.004;2022-09-09T17:19:05;4.45;;;2.78;;
48667;SDS011;34453;52.198;5.004;2022-09-09T17:21:37;3.33;;;2.10;;
48667;SDS011;34453;52.198;5.004;2022-09-09T17:24:03;4.95;;;2.80;;
48667;SDS011;34453;52.198;5.004;2022-09-09T17:26:31;5.38;;;3.22;;
48667;SDS011;34453;52.198;5.004;2022-09-09T17:28:59;4.95;;;3.05;;
48667;SDS011;34453;52.198;5.004;2022-09-09T17:31:26;4.50;;;2.92;;
48667;SDS011;34453;52.198;5.004;2022-09-09T17:33:53;4.75;;;3.10;;
48667;SDS011;34453;52.198;5.004;2022-09-09T17:38:49;3.35;;;3.00;;